sensor_id;sensor_type;location;lat;lon;timestamp;pressure;altitude;pressure_sealevel;temperature;humidity
39267;BME280;24967;51.154;13.812;2023-08-07T00:00:11;98262.16;;;15.20;100.00
39267;BME280;24967;51.154;13.812;2023-08-07T00:02:38;98259.06;;;15.23;100.00
39267;BME280;24967;51.154;13.812;2023-08-07T00:05:05;98260.84;;;15.35;100.00
39267;BME280;24967;51.154;13.812;2023-08-07T00:07:32;98257.19;;;15.23;100.00
39267;BME280;24967;51.154;13.812;2023-08-07T00:09:58;98247.97;;;15.12;100.00
39267;BME280;24967;51.154;13.812;2023-08-07T00:12:26;98256.00;;;15.19;100.00
39267;BME280;24967;51.154;13.812;2023-08-07T00:14:52;98257.97;;;15.30;100.00
39267;BME280;24967;51.154;13.812;2023-08-07T00:17:20;98254.72;;;15.22;100.00
39267;BME280;24967;51.154;13.812;2023-08-07T00:19:47;98258.84;;;15.24;100.00
39267;BME280;24967;51.154;13.812;2023-08-07T00:22:13;98267.94;;;15.17;100.00
39267;BME280;24967;51.154;13.812;2023-08-07T00:24:40;98257.97;;;15.30;100.00
39267;BME280;24967;51.154;13.812;2023-08-07T00:27:07;98261.47;;;15.38;100.00
39267;BME280;24967;51.154;13.812;2023-08-07T00:29:35;98264.59;;;15.34;100.00
39267;BME280;24967;51.154;13.812;2023-08-07T00:32:01;98258.81;;;15.31;100.00
39267;BME280;24967;51.154;13.812;2023-08-07T00:34:29;98254.28;;;15.25;100.00
39267;BME280;24967;51.154;13.812;2023-08-07T00:36:56;98261.63;;;15.43;100.00
39267;BME280;24967;51.154;13.812;2023-08-07T00:39:23;98258.78;;;15.44;100.00
39267;BME280;24967;51.154;13.812;2023-08-07T00:41:50;98253.66;;;15.36;100.00
39267;BME280;24967;51.154;13.812;2023-08-07T00:44:16;98264.16;;;15.38;100.00
39267;BME280;24967;51.154;13.812;2023-08-07T00:46:43;98258.22;;;15.29;100.00
39267;BME280;24967;51.154;13.812;2023-08-07T00:49:11;98268.28;;;15.40;100.00
39267;BME280;24967;51.154;13.812;2023-08-07T00:51:40;98264.13;;;15.44;100.00
39267;BME280;24967;51.154;13.812;2023-08-07T00:54:07;98259.84;;;15.30;100.00
39267;BME280;24967;51.154;13.812;2023-08-07T00:56:36;98261.28;;;15.32;100.00
39267;BME280;24967;51.154;13.812;2023-08-07T00:59:03;98258.88;;;15.18;100.00
39267;BME280;24967;51.154;13.812;2023-08-07T01:01:30;98251.25;;;15.15;100.00
39267;BME280;24967;51.154;13.812;2023-08-07T01:03:56;98253.97;;;15.08;100.00
39267;BME280;24967;51.154;13.812;2023-08-07T01:06:23;98253.75;;;15.03;100.00
39267;BME280;24967;51.154;13.812;2023-08-07T01:08:51;98258.31;;;14.96;100.00
39267;BME280;24967;51.154;13.812;2023-08-07T01:11:22;98255.00;;;15.07;100.00
39267;BME280;24967;51.154;13.812;2023-08-07T01:13:55;98251.91;;;15.10;100.00
39267;BME280;24967;51.154;13.812;2023-08-07T01:16:29;98254.41;;;14.98;100.00
39267;BME280;24967;51.154;13.812;2023-08-07T01:19:00;98245.19;;;14.81;100.00
39267;BME280;24967;51.154;13.812;2023-08-07T01:21:28;98245.13;;;14.94;100.00
39267;BME280;24967;51.154;13.812;2023-08-07T01:23:56;98244.97;;;14.76;100.00
39267;BME280;24967;51.154;13.812;2023-08-07T01:26:22;98245.34;;;14.93;100.00
39267;BME280;24967;51.154;13.812;2023-08-07T01:28:54;98246.19;;;14.86;100.00
39267;BME280;24967;51.154;13.812;2023-08-07T01:31:24;98235.28;;;14.81;100.00
39267;BME280;24967;51.154;13.812;2023-08-07T01:33:57;98246.63;;;14.77;100.00
39267;BME280;24967;51.154;13.812;2023-08-07T01:36:27;98250.13;;;14.51;100.00
39267;BME280;24967;51.154;13.812;2023-08-07T01:38:57;98246.63;;;14.50;100.00
39267;BME280;24967;51.154;13.812;2023-08-07T01:41:26;98254.25;;;14.47;100.00
39267;BME280;24967;51.154;13.812;2023-08-07T01:43:53;98253.25;;;14.68;100.00
39267;BME280;24967;51.154;13.812;2023-08-07T01:46:20;98249.91;;;14.72;100.00
39267;BME280;24967;51.154;13.812;2023-08-07T01:48:47;98249.31;;;14.70;100.00
39267;BME280;24967;51.154;13.812;2023-08-07T01:51:13;98260.00;;;14.77;100.00
39267;BME280;24967;51.154;13.812;2023-08-07T01:53:40;98262.88;;;14.82;100.00
39267;BME280;24967;51.154;13.812;2023-08-07T01:56:08;98269.47;;;14.86;100.00
39267;BME280;24967;51.154;13.812;2023-08-07T01:58:34;98271.97;;;14.68;100.00
39267;BME280;24967;51.154;13.812;2023-08-07T02:01:01;98268.22;;;14.75;100.00
39267;BME280;24967;51.154;13.812;2023-08-07T02:03:27;98276.81;;;14.97;100.00
39267;BME280;24967;51.154;13.812;2023-08-07T02:05:54;98271.69;;;15.02;100.00
39267;BME280;24967;51.154;13.812;2023-08-07T02:08:20;98275.78;;;15.11;100.00
39267;BME280;24967;51.154;13.812;2023-08-07T02:10:47;98276.22;;;14.95;100.00
39267;BME280;24967;51.154;13.812;2023-08-07T02:13:14;98270.03;;;14.95;100.00
39267;BME280;24967;51.154;13.812;2023-08-07T02:15:41;98265.91;;;15.05;100.00
39267;BME280;24967;51.154;13.812;2023-08-07T02:18:07;98272.69;;;15.08;100.00
39267;BME280;24967;51.154;13.812;2023-08-07T02:20:34;98269.19;;;15.14;100.00
39267;BME280;24967;51.154;13.812;2023-08-07T02:23:00;98273.31;;;15.10;100.00
39267;BME280;24967;51.154;13.812;2023-08-07T02:25:27;98272.09;;;14.99;100.00
39267;BME280;24967;51.154;13.812;2023-08-07T02:27:54;98277.44;;;14.99;100.00
39267;BME280;24967;51.154;13.812;2023-08-07T02:30:21;98277.81;;;15.09;100.00
39267;BME280;24967;51.154;13.812;2023-08-07T02:32:48;98279.88;;;15.14;100.00
39267;BME280;24967;51.154;13.812;2023-08-07T02:35:14;98284.81;;;15.17;100.00
39267;BME280;24967;51.154;13.812;2023-08-07T02:37:41;98284.41;;;15.20;100.00
39267;BME280;24967;51.154;13.812;2023-08-07T02:40:08;98284.81;;;15.17;100.00
39267;BME280;24967;51.154;13.812;2023-08-07T02:42:36;98285.66;;;15.11;100.00
39267;BME280;24967;51.154;13.812;2023-08-07T02:45:03;98278.44;;;15.11;100.00
39267;BME280;24967;51.154;13.812;2023-08-07T02:47:31;98283.31;;;15.28;100.00
39267;BME280;24967;51.154;13.812;2023-08-07T02:49:57;98286.78;;;15.42;100.00
39267;BME280;24967;51.154;13.812;2023-08-07T02:52:24;98289.44;;;15.48;100.00
39267;BME280;24967;51.154;13.812;2023-08-07T02:54:51;98289.91;;;15.32;100.00
39267;BME280;24967;51.154;13.812;2023-08-07T02:57:17;98292.13;;;15.42;100.00
39267;BME280;24967;51.154;13.812;2023-08-07T02:59:44;98303.59;;;15.62;100.00
39267;BME280;24967;51.154;13.812;2023-08-07T03:02:10;98305.22;;;15.05;100.00
39267;BME280;24967;51.154;13.812;2023-08-07T03:04:38;98314.53;;;14.69;100.00
39267;BME280;24967;51.154;13.812;2023-08-07T03:07:05;98303.78;;;14.49;100.00
39267;BME280;24967;51.154;13.812;2023-08-07T03:09:32;98305.66;;;14.42;100.00
39267;BME280;24967;51.154;13.812;2023-08-07T03:11:58;98323.34;;;14.30;100.00
39267;BME280;24967;51.154;13.812;2023-08-07T03:14:28;98326.38;;;14.07;100.00
39267;BME280;24967;51.154;13.812;2023-08-07T03:16:55;98328.38;;;13.91;100.00
39267;BME280;24967;51.154;13.812;2023-08-07T03:19:21;98334.97;;;13.89;100.00
39267;BME280;24967;51.154;13.812;2023-08-07T03:21:49;98335.81;;;14.03;100.00
39267;BME280;24967;51.154;13.812;2023-08-07T03:24:16;98337.69;;;14.02;100.00
39267;BME280;24967;51.154;13.812;2023-08-07T03:26:42;98339.06;;;13.85;100.00
39267;BME280;24967;51.154;13.812;2023-08-07T03:29:09;98339.28;;;13.90;100.00
39267;BME280;24967;51.154;13.812;2023-08-07T03:31:36;98349.00;;;14.04;100.00
39267;BME280;24967;51.154;13.812;2023-08-07T03:34:02;98353.94;;;14.14;100.00
39267;BME280;24967;51.154;13.812;2023-08-07T03:36:29;98357.28;;;14.29;100.00
39267;BME280;24967;51.154;13.812;2023-08-07T03:38:57;98361.56;;;14.17;100.00
39267;BME280;24967;51.154;13.812;2023-08-07T03:41:23;98365.06;;;14.17;100.00
39267;BME280;24967;51.154;13.812;2023-08-07T03:43:50;98375.50;;;13.99;100.00
39267;BME280;24967;51.154;13.812;2023-08-07T03:46:16;98367.06;;;14.02;100.00
39267;BME280;24967;51.154;13.812;2023-08-07T03:48:43;98373.22;;;14.03;100.00
39267;BME280;24967;51.154;13.812;2023-08-07T03:51:09;98368.53;;;14.05;100.00
39267;BME280;24967;51.154;13.812;2023-08-07T03:53:36;98375.31;;;14.07;100.00
39267;BME280;24967;51.154;13.812;2023-08-07T03:56:04;98373.06;;;14.17;100.00
39267;BME280;24967;51.154;13.812;2023-08-07T03:58:30;98381.91;;;14.11;100.00
39267;BME280;24967;51.154;13.812;2023-08-07T04:00:57;98378.41;;;14.17;100.00
39267;BME280;24967;51.154;13.812;2023-08-07T04:03:23;98379.41;;;14.10;100.00
39267;BME280;24967;51.154;13.812;2023-08-07T04:05:51;98386.81;;;14.08;100.00
39267;BME280;24967;51.154;13.812;2023-08-07T04:08:18;98382.53;;;14.20;100.00
39267;BME280;24967;51.154;13.812;2023-08-07T04:10:45;98389.56;;;14.34;100.00
39267;BME280;24967;51.154;13.812;2023-08-07T04:13:13;98390.59;;;14.40;100.00
39267;BME280;24967;51.154;13.812;2023-08-07T04:15:39;98389.59;;;14.48;100.00
39267;BME280;24967;51.154;13.812;2023-08-07T04:18:07;98390.41;;;14.48;100.00
39267;BME280;24967;51.154;13.812;2023-08-07T04:20:33;98387.75;;;14.55;100.00
39267;BME280;24967;51.154;13.812;2023-08-07T04:22:59;98394.53;;;14.51;100.00
